Time;durP1;ratioP1;P1;durP2;ratioP2;P2;SDS_P1;SDS_P2;PMS_P1;PMS_P2;Temp;Humidity;BMP_temperature;BMP_pressure;BME280_temperature;BME280_humidity;BME280_pressure;Samples;Min_cycle;Max_cycle;Signal;HPM_P1;HPM_P2
2023/04/13 00:00:36;;;;;;;;;;;;;;;;;;5132523;27;1761;-40
2023/04/13 00:03:04;;;;;;;;;;;;;;;;;;5132784;27;1982;-40
2023/04/13 00:05:33;;;;;;;;;;;;;;;;;;5131918;27;1833;-39
2023/04/13 00:08:01;;;;;;;;;;;;;;;;;;5132358;27;2141;-40
2023/04/13 00:10:30;;;;;;;;;;;;;;;;;;5132315;27;1883;-40
2023/04/13 00:12:57;;;;;;;;;;;;;;;;;;5132625;27;1911;-45
2023/04/13 00:15:24;;;;;;;;;;;;;;;;;;5132341;27;1977;-40
2023/04/13 00:17:52;;;;;;;;;;;;;;;;;;5132264;27;2072;-44
2023/04/13 00:20:21;;;;;;;;;;;;;;;;;;5132600;27;1865;-40
2023/04/13 00:22:49;;;;;;;;;;;;;;;;;;5132198;27;1871;-51
2023/04/13 00:25:16;;;;;;;;;;;;;;;;;;5132057;27;1918;-39
2023/04/13 00:27:43;;;;;;;;;;;;;;;;;;5132156;27;1918;-39
2023/04/13 00:30:14;;;;;;;;;;;;;;;;;;5132234;27;2156;-40
2023/04/13 00:32:43;;;;;;;;;;;;;;;;;;5132137;27;2233;-39
2023/04/13 00:35:10;;;;;;;;;;;;;;;;;;5132609;27;2121;-48
2023/04/13 00:37:38;;;;;;;;;;;;;;;;;;5132038;27;1876;-44
2023/04/13 00:40:07;;;;;;;;;;;;;;;;;;5132195;27;1613;-42
2023/04/13 00:42:35;;;;;;;;;;;;;;;;;;5132174;28;2131;-40
2023/04/13 00:45:02;;;;;;;;;;;;;;;;;;5132011;27;1675;-42
2023/04/13 00:47:31;;;;;;;;;;;;;;;;;;5131748;27;2124;-42
2023/04/13 00:50:02;;;;;;;;;;;;;;;;;;5131643;27;1686;-48
2023/04/13 00:52:33;;;;;;;;;;;;;;;;;;5131965;28;1670;-42
2023/04/13 00:55:01;;;;;;;;;;;;;;;;;;5131921;28;2058;-40
2023/04/13 00:57:28;;;;;;;;;;;;;;;;;;5112864;27;2095;-47
2023/04/13 00:59:56;;;;;;;;;;;;;;;;;;5109829;28;2275;-46
2023/04/13 01:02:25;;;;;;;;;;;;;;;;;;5111584;28;2075;-40
2023/04/13 01:04:56;;;;;;;;;;;;;;;;;;5111265;28;2014;-45
2023/04/13 01:07:41;;;;;;;;;;;;;;;;;;5109742;28;2039;-40
2023/04/13 01:10:09;;;;;;;;;;;;;;;;;;5093088;28;1997;-44
2023/04/13 01:12:55;;;;;;;;;;;;;;;;;;5110052;28;1786;-40
2023/04/13 01:15:26;;;;;;;;;;;;;;;;;;5109974;28;1903;-40
2023/04/13 01:17:55;;;;;;;;;;;;;;;;;;5111261;28;1927;-40
2023/04/13 01:20:25;;;;;;;;;;;;;;;;;;5111058;28;1702;-40
2023/04/13 01:22:54;;;;;;;;;;;;;;;;;;5111340;28;1969;-43
2023/04/13 01:25:31;;;;;;;;;;;;;;;;;;5110948;28;1973;-48
2023/04/13 01:28:02;;;;;;;;;;;;;;;;;;5110766;28;1988;-44
2023/04/13 01:30:33;;;;;;;;;;;;;;;;;;5109825;28;1703;-40
2023/04/13 01:33:04;;;;;;;;;;;;;;;;;;5110931;28;1987;-39
2023/04/13 01:35:33;;;;;;;;;;;;;;;;;;5111082;28;2173;-56
2023/04/13 01:38:02;;;;;;;;;;;;;;;;;;5109550;28;1480;-40
2023/04/13 01:40:30;;;;;;;;;;;;;;;;;;5110022;28;1917;-44
2023/04/13 01:42:57;;;;;;;;;;;;;;;;;;5112535;28;2126;-39
2023/04/13 01:45:33;;;;;;;;;;;;;;;;;;5113384;28;2165;-41
2023/04/13 01:48:08;;;;;;;;;;;;;;;;;;5112679;28;2080;-48
2023/04/13 01:51:10;;;;;;;;;;;;;;;;;;5104363;28;2268;-46
2023/04/13 01:53:48;;;;;;;;;;;;;;;;;;5114482;28;1586;-40
2023/04/13 01:56:18;;;;;;;;;;;;;;;;;;5113098;28;1944;-50
2023/04/13 01:58:48;;;;;;;;;;;;;;;;;;5113387;28;2326;-39
2023/04/13 02:01:16;;;;;;;;;;;;;;;;;;5114528;28;1725;-41
2023/04/13 02:03:44;;;;;;;;;;;;;;;;;;5113063;28;2209;-39
2023/04/13 02:06:11;;;;;;;;;;;;;;;;;;5112583;28;1389;-44
2023/04/13 02:08:40;;;;;;;;;;;;;;;;;;5112808;28;1780;-45
2023/04/13 02:11:09;;;;;;;;;;;;;;;;;;5112975;28;2030;-41
2023/04/13 02:13:36;;;;;;;;;;;;;;;;;;5112866;28;1865;-41
2023/04/13 02:16:05;;;;;;;;;;;;;;;;;;5112682;28;2400;-43
2023/04/13 02:18:32;;;;;;;;;;;;;;;;;;5112789;28;2125;-40
2023/04/13 02:21:03;;;;;;;;;;;;;;;;;;5112478;28;1972;-40
2023/04/13 02:23:30;;;;;;;;;;;;;;;;;;5112681;28;1600;-44
2023/04/13 02:25:57;;;;;;;;;;;;;;;;;;5112471;28;2144;-39
2023/04/13 02:28:28;;;;;;;;;;;;;;;;;;5112571;28;1911;-41
2023/04/13 02:30:58;;;;;;;;;;;;;;;;;;5112636;28;1651;-40
2023/04/13 02:33:32;;;;;;;;;;;;;;;;;;5114231;28;1832;-40
2023/04/13 02:36:01;;;;;;;;;;;;;;;;;;5112480;28;1781;-46
2023/04/13 02:38:31;;;;;;;;;;;;;;;;;;5112422;28;2160;-40
2023/04/13 02:41:05;;;;;;;;;;;;;;;;;;5112209;28;1917;-44
2023/04/13 02:43:33;;;;;;;;;;;;;;;;;;5112302;28;2064;-40
2023/04/13 02:46:01;;;;;;;;;;;;;;;;;;5112039;28;2026;-40
2023/04/13 02:48:33;;;;;;;;;;;;;;;;;;5111840;28;1980;-39
2023/04/13 02:51:03;;;;;;;;;;;;;;;;;;5112030;28;1981;-39
2023/04/13 02:53:35;;;;;;;;;;;;;;;;;;5111310;28;1705;-39
2023/04/13 02:56:05;;;;;;;;;;;;;;;;;;5112980;28;2138;-40
2023/04/13 02:58:33;;;;;;;;;;;;;;;;;;5111897;28;1464;-40
2023/04/13 03:01:05;;;;;;;;;;;;;;;;;;5112071;28;1985;-41
2023/04/13 03:03:33;;;;;;;;;;;;;;;;;;5112231;28;1789;-41
2023/04/13 03:06:01;;;;;;;;;;;;;;;;;;5113188;28;1579;-44
2023/04/13 03:08:45;;;;;;;;;;;;;;;;;;5111471;28;1905;-41
2023/04/13 03:11:27;;;;;;;;;;;;;;;;;;5111758;28;2116;-45
2023/04/13 03:14:11;;;;;;;;;;;;;;;;;;5111510;28;2205;-42
2023/04/13 03:16:40;;;;;;;;;;;;;;;;;;5113214;28;1787;-51
2023/04/13 03:19:10;;;;;;;;;;;;;;;;;;5111390;28;1850;-41
2023/04/13 03:21:45;;;;;;;;;;;;;;;;;;5111502;28;1933;-46
2023/04/13 03:24:17;;;;;;;;;;;;;;;;;;5111142;28;1376;-42
2023/04/13 03:26:45;;;;;;;;;;;;;;;;;;5121153;27;2187;-44
2023/04/13 03:29:18;;;;;;;;;;;;;;;;;;5111087;28;2171;-40
2023/04/13 03:31:46;;;;;;;;;;;;;;;;;;5112576;28;1952;-40
2023/04/13 03:34:13;;;;;;;;;;;;;;;;;;5112744;28;1968;-41
2023/04/13 03:36:42;;;;;;;;;;;;;;;;;;5111233;28;1927;-42
2023/04/13 03:39:09;;;;;;;;;;;;;;;;;;5111203;28;1805;-41
2023/04/13 03:41:37;;;;;;;;;;;;;;;;;;5111139;28;1685;-41
2023/04/13 03:44:07;;;;;;;;;;;;;;;;;;5111022;28;2336;-40
2023/04/13 03:46:36;;;;;;;;;;;;;;;;;;5110679;28;1915;-40
2023/04/13 03:49:13;;;;;;;;;;;;;;;;;;5110861;28;2274;-41
2023/04/13 03:51:43;;;;;;;;;;;;;;;;;;5110999;28;2052;-40
2023/04/13 03:54:10;;;;;;;;;;;;;;;;;;5111962;28;1747;-41
2023/04/13 03:56:38;;;;;;;;;;;;;;;;;;5110565;28;1992;-40
2023/04/13 03:59:07;;;;;;;;;;;;;;;;;;5110941;28;1798;-40
2023/04/13 04:01:34;;;;;;;;;;;;;;;;;;5110516;28;1736;-41
2023/04/13 04:04:01;;;;;;;;;;;;;;;;;;5115346;27;1981;-41
2023/04/13 04:06:30;;;;;;;;;;;;;;;;;;5110059;28;2048;-40
2023/04/13 04:09:09;;;;;;;;;;;;;;;;;;5110452;28;1911;-41
2023/04/13 04:11:41;;;;;;;;;;;;;;;;;;5127455;27;1624;-41
2023/04/13 04:14:09;;;;;;;;;;;;;;;;;;5130860;27;2026;-40
2023/04/13 04:16:40;;;;;;;;;;;;;;;;;;5131059;27;2181;-40
2023/04/13 04:19:13;;;;;;;;;;;;;;;;;;5131459;27;1922;-44
2023/04/13 04:21:45;;;;;;;;;;;;;;;;;;5132486;27;1715;-41
2023/04/13 04:24:21;;;;;;;;;;;;;;;;;;5132228;27;1978;-40
2023/04/13 04:26:53;;;;;;;;;;;;;;;;;;5130712;27;1974;-52
2023/04/13 04:29:32;;;;;;;;;;;;;;;;;;5131002;27;2038;-41
2023/04/13 04:32:23;;;;;;;;;;;;;;;;;;5126397;27;1834;-41
2023/04/13 04:34:52;;;;;;;;;;;;;;;;;;5130642;27;2026;-41
2023/04/13 04:37:22;;;;;;;;;;;;;;;;;;5130653;27;2111;-44
2023/04/13 04:40:04;;;;;;;;;;;;;;;;;;5131132;27;1393;-50
2023/04/13 04:42:31;;;;;;;;;;;;;;;;;;5130613;27;1764;-41
2023/04/13 04:45:03;;;;;;;;;;;;;;;;;;5131020;28;2030;-50
2023/04/13 04:47:40;;;;;;;;;;;;;;;;;;5130539;28;2072;-41
2023/04/13 04:50:16;;;;;;;;;;;;;;;;;;5130403;28;1439;-42
2023/04/13 04:52:48;;;;;;;;;;;;;;;;;;5130465;28;1644;-43
2023/04/13 04:55:19;;;;;;;;;;;;;;;;;;5130764;28;1835;-51
2023/04/13 04:57:48;;;;;;;;;;;;;;;;;;5130489;28;1695;-51
2023/04/13 05:00:17;;;;;;;;;;;;;;;;;;5130775;28;2121;-41
2023/04/13 05:03:00;;;;;;;;;;;;;;;;;;5130581;28;1779;-63
2023/04/13 05:05:29;;;;;;;;;;;;;;;;;;5115273;28;1971;-40
2023/04/13 05:08:02;;;;;;;;;;;;;;;;;;5110119;28;2077;-45
2023/04/13 05:10:46;;;;;;;;;;;;;;;;;;5110109;28;1965;-41
2023/04/13 05:13:20;;;;;;;;;;;;;;;;;;5109880;28;1981;-42
2023/04/13 05:16:24;;;;;;;;;;;;;;;;;;5097636;28;1606;-41
2023/04/13 05:19:02;;;;;;;;;;;;;;;;;;5113557;28;1715;-43
2023/04/13 05:21:57;;;;;;;;;;;;;;;;;;5109017;28;1753;-45
2023/04/13 05:24:32;;;;;;;;;;;;;;;;;;5114809;27;1959;-52
2023/04/13 05:27:03;;;;;;;;;;;;;;;;;;5113912;28;1550;-61
2023/04/13 05:29:34;;;;;;;;;;;;;;;;;;5115199;28;1778;-43
2023/04/13 05:32:02;;;;;;;;;;;;;;;;;;5113905;28;1473;-42
2023/04/13 05:34:32;;;;;;;;;;;;;;;;;;5113728;28;2066;-40
2023/04/13 05:37:20;;;;;;;;;;;;;;;;;;5114422;28;1753;-52
2023/04/13 05:39:47;;;;;;;;;;;;;;;;;;5113625;28;1748;-41
2023/04/13 05:42:19;;;;;;;;;;;;;;;;;;5113422;28;2027;-52
2023/04/13 05:44:46;;;;;;;;;;;;;;;;;;5114592;28;2074;-49
2023/04/13 05:47:17;;;;;;;;;;;;;;;;;;5113157;28;2255;-41
2023/04/13 05:49:46;;;;;;;;;;;;;;;;;;5113442;28;2005;-42
2023/04/13 05:52:17;;;;;;;;;;;;;;;;;;5113451;28;2151;-51
2023/04/13 05:54:48;;;;;;;;;;;;;;;;;;5114276;28;1638;-42
2023/04/13 05:57:21;;;;;;;;;;;;;;;;;;5113029;28;2180;-52
2023/04/13 05:59:52;;;;;;;;;;;;;;;;;;5113061;28;1808;-41
2023/04/13 06:02:26;;;;;;;;;;;;;;;;;;5112857;28;1968;-49
2023/04/13 06:04:53;;;;;;;;;;;;;;;;;;5113242;28;1977;-42
2023/04/13 06:07:22;;;;;;;;;;;;;;;;;;5113887;27;1922;-58
2023/04/13 06:09:49;;;;;;;;;;;;;;;;;;5114230;28;1869;-42
2023/04/13 06:12:17;;;;;;;;;;;;;;;;;;5113985;28;2007;-49
2023/04/13 06:14:44;;;;;;;;;;;;;;;;;;5112584;28;2298;-59
2023/04/13 06:17:12;;;;;;;;;;;;;;;;;;5113859;28;1642;-62
2023/04/13 06:19:40;;;;;;;;;;;;;;;;;;5112495;28;1974;-40
2023/04/13 06:22:07;;;;;;;;;;;;;;;;;;5114066;28;1974;-53
2023/04/13 06:24:38;;;;;;;;;;;;;;;;;;5112536;28;1614;-56
2023/04/13 06:27:07;;;;;;;;;;;;;;;;;;5123257;27;1717;-48
2023/04/13 06:29:36;;;;;;;;;;;;;;;;;;5124919;27;1969;-41
2023/04/13 06:32:08;;;;;;;;;;;;;;;;;;5112490;28;1820;-47
2023/04/13 06:34:35;;;;;;;;;;;;;;;;;;5112846;28;1400;-42
2023/04/13 06:37:04;;;;;;;;;;;;;;;;;;5112181;28;1747;-41
2023/04/13 06:39:42;;;;;;;;;;;;;;;;;;5112266;28;1669;-41
2023/04/13 06:42:09;;;;;;;;;;;;;;;;;;5112009;28;1818;-41
2023/04/13 06:44:51;;;;;;;;;;;;;;;;;;5112199;28;2043;-44
2023/04/13 06:47:21;;;;;;;;;;;;;;;;;;5111763;28;1914;-40
2023/04/13 06:49:49;;;;;;;;;;;;;;;;;;5113364;28;1908;-40
2023/04/13 06:52:16;;;;;;;;;;;;;;;;;;5111771;28;1637;-40
2023/04/13 06:54:43;;;;;;;;;;;;;;;;;;5111913;28;1742;-44
2023/04/13 06:57:23;;;;;;;;;;;;;;;;;;5126501;27;2202;-41
2023/04/13 06:59:50;;;;;;;;;;;;;;;;;;5113395;28;2229;-42
2023/04/13 07:02:18;;;;;;;;;;;;;;;;;;5111417;28;1545;-43
2023/04/13 07:04:45;;;;;;;;;;;;;;;;;;5111720;28;2170;-41
2023/04/13 07:07:13;;;;;;;;;;;;;;;;;;5111613;28;1989;-42
2023/04/13 07:09:41;;;;;;;;;;;;;;;;;;5113086;28;1910;-44
2023/04/13 07:12:10;;;;;;;;;;;;;;;;;;5111527;28;1944;-50
2023/04/13 07:14:39;;;;;;;;;;;;;;;;;;5111779;28;2044;-51
2023/04/13 07:17:11;;;;;;;;;;;;;;;;;;5111569;28;2119;-41
2023/04/13 07:19:43;;;;;;;;;;;;;;;;;;5112997;28;1470;-42
2023/04/13 07:22:11;;;;;;;;;;;;;;;;;;5127165;27;2008;-41
2023/04/13 07:24:39;;;;;;;;;;;;;;;;;;5111752;28;1881;-41
2023/04/13 07:27:11;;;;;;;;;;;;;;;;;;5111182;28;2351;-42
2023/04/13 07:29:39;;;;;;;;;;;;;;;;;;5112602;28;1955;-41
2023/04/13 07:32:12;;;;;;;;;;;;;;;;;;5111354;28;1808;-42
2023/04/13 07:34:42;;;;;;;;;;;;;;;;;;5111271;28;1981;-61
2023/04/13 07:37:10;;;;;;;;;;;;;;;;;;5111439;28;1917;-43
2023/04/13 07:39:37;;;;;;;;;;;;;;;;;;5111784;28;1707;-42
2023/04/13 07:42:04;;;;;;;;;;;;;;;;;;5112191;28;1932;-40
2023/04/13 07:44:43;;;;;;;;;;;;;;;;;;5112287;28;1667;-42
2023/04/13 07:47:12;;;;;;;;;;;;;;;;;;5110845;28;2061;-45
2023/04/13 07:49:42;;;;;;;;;;;;;;;;;;5127986;27;2121;-53
2023/04/13 07:52:13;;;;;;;;;;;;;;;;;;5110603;28;2026;-42
2023/04/13 07:54:43;;;;;;;;;;;;;;;;;;5112346;28;1371;-59
2023/04/13 07:57:11;;;;;;;;;;;;;;;;;;5127228;27;1917;-42
2023/04/13 07:59:44;;;;;;;;;;;;;;;;;;5132762;27;1328;-42
2023/04/13 08:02:15;;;;;;;;;;;;;;;;;;5131241;27;2299;-48
2023/04/13 08:04:47;;;;;;;;;;;;;;;;;;5131015;27;1631;-47
2023/04/13 08:07:21;;;;;;;;;;;;;;;;;;5130963;27;2182;-45
2023/04/13 08:09:51;;;;;;;;;;;;;;;;;;5132188;27;1911;-49
2023/04/13 08:12:19;;;;;;;;;;;;;;;;;;5130826;27;2324;-48
2023/04/13 08:14:47;;;;;;;;;;;;;;;;;;5132380;27;1973;-60
2023/04/13 08:17:14;;;;;;;;;;;;;;;;;;5131133;27;1844;-58
2023/04/13 08:19:42;;;;;;;;;;;;;;;;;;5132501;27;2201;-57
2023/04/13 08:22:12;;;;;;;;;;;;;;;;;;5131045;27;2022;-43
2023/04/13 08:24:40;;;;;;;;;;;;;;;;;;5127058;27;1998;-42
2023/04/13 08:27:08;;;;;;;;;;;;;;;;;;5110324;28;1535;-52
2023/04/13 08:29:38;;;;;;;;;;;;;;;;;;5109955;28;2246;-51
2023/04/13 08:32:05;;;;;;;;;;;;;;;;;;5111476;28;1727;-41
2023/04/13 08:34:33;;;;;;;;;;;;;;;;;;5110343;28;2017;-52
2023/04/13 08:37:01;;;;;;;;;;;;;;;;;;5111551;28;1987;-40
2023/04/13 08:39:32;;;;;;;;;;;;;;;;;;5110218;28;2176;-43
2023/04/13 08:42:00;;;;;;;;;;;;;;;;;;5111409;28;2047;-46
2023/04/13 08:44:32;;;;;;;;;;;;;;;;;;5109779;28;1592;-42
2023/04/13 08:47:00;;;;;;;;;;;;;;;;;;5109901;28;2038;-46
2023/04/13 08:49:31;;;;;;;;;;;;;;;;;;5110106;28;2029;-41
2023/04/13 08:52:09;;;;;;;;;;;;;;;;;;5113697;28;1752;-46
2023/04/13 08:54:39;;;;;;;;;;;;;;;;;;5114703;28;1918;-45
2023/04/13 08:57:15;;;;;;;;;;;;;;;;;;5115745;28;1879;-44
2023/04/13 08:59:43;;;;;;;;;;;;;;;;;;5114630;28;2078;-52
2023/04/13 09:02:11;;;;;;;;;;;;;;;;;;5114466;28;1838;-55
2023/04/13 09:04:52;;;;;;;;;;;;;;;;;;5113886;28;1934;-51
2023/04/13 09:07:31;;;;;;;;;;;;;;;;;;5133866;27;1718;-48
2023/04/13 09:10:08;;;;;;;;;;;;;;;;;;5134526;27;1993;-60
2023/04/13 09:12:39;;;;;;;;;;;;;;;;;;5135605;27;2219;-43
2023/04/13 09:15:07;;;;;;;;;;;;;;;;;;5134445;27;1971;-42
2023/04/13 09:17:43;;;;;;;;;;;;;;;;;;5133920;27;1875;-58
2023/04/13 09:20:10;;;;;;;;;;;;;;;;;;5133670;27;1780;-42
2023/04/13 09:22:38;;;;;;;;;;;;;;;;;;5135658;27;1721;-42
2023/04/13 09:25:06;;;;;;;;;;;;;;;;;;5135508;27;1973;-41
2023/04/13 09:27:33;;;;;;;;;;;;;;;;;;5135585;27;1910;-42
2023/04/13 09:30:01;;;;;;;;;;;;;;;;;;5135147;27;2008;-49
2023/04/13 09:32:28;;;;;;;;;;;;;;;;;;5135400;27;2159;-44
2023/04/13 09:35:07;;;;;;;;;;;;;;;;;;5135515;27;1568;-41
2023/04/13 09:37:35;;;;;;;;;;;;;;;;;;5135477;27;1899;-51
2023/04/13 09:40:17;;;;;;;;;;;;;;;;;;5135663;27;1856;-43
2023/04/13 09:42:54;;;;;;;;;;;;;;;;;;5135413;27;2015;-41
2023/04/13 09:45:22;;;;;;;;;;;;;;;;;;5135531;27;1451;-41
2023/04/13 09:47:51;;;;;;;;;;;;;;;;;;5135352;27;2118;-44
2023/04/13 09:50:25;;;;;;;;;;;;;;;;;;5135279;27;2071;-41
2023/04/13 09:52:59;;;;;;;;;;;;;;;;;;5135000;27;1858;-41
2023/04/13 09:55:27;;;;;;;;;;;;;;;;;;5133635;27;1722;-43
2023/04/13 09:57:55;;;;;;;;;;;;;;;;;;5112970;28;2087;-41
2023/04/13 10:00:24;;;;;;;;;;;;;;;;;;5114696;27;1958;-41
2023/04/13 10:02:52;;;;;;;;;;;;;;;;;;5112621;28;1540;-41
2023/04/13 10:05:21;;;;;;;;;;;;;;;;;;5114189;28;1892;-43
2023/04/13 10:07:49;;;;;;;;;;;;;;;;;;5114554;28;2158;-40
2023/04/13 10:10:18;;;;;;;;;;;;;;;;;;5114183;28;2150;-46
2023/04/13 10:12:47;;;;;;;;;;;;;;;;;;5114246;27;2128;-53
2023/04/13 10:15:43;;;;;;;;;;;;;;;;;;5113522;28;1675;-41
2023/04/13 10:18:20;;;;;;;;;;;;;;;;;;5109182;28;1960;-50
2023/04/13 10:20:49;;;;;;;;;;;;;;;;;;5114094;28;1743;-42
2023/04/13 10:23:17;;;;;;;;;;;;;;;;;;5114016;28;1819;-50
2023/04/13 10:25:51;;;;;;;;;;;;;;;;;;5114030;28;2160;-49
2023/04/13 10:28:19;;;;;;;;;;;;;;;;;;5113852;28;1696;-52
2023/04/13 10:30:50;;;;;;;;;;;;;;;;;;5113596;28;1971;-49
2023/04/13 10:33:17;;;;;;;;;;;;;;;;;;5113760;28;2231;-50
2023/04/13 10:36:00;;;;;;;;;;;;;;;;;;5113760;28;1975;-53
2023/04/13 10:38:27;;;;;;;;;;;;;;;;;;5113671;28;2443;-39
2023/04/13 10:40:55;;;;;;;;;;;;;;;;;;5113541;28;1910;-41
2023/04/13 10:43:29;;;;;;;;;;;;;;;;;;5113643;28;2014;-45
2023/04/13 10:46:09;;;;;;;;;;;;;;;;;;5113675;28;1547;-41
2023/04/13 10:48:36;;;;;;;;;;;;;;;;;;5113351;28;2189;-41
2023/04/13 10:51:04;;;;;;;;;;;;;;;;;;5113584;28;2016;-47
2023/04/13 10:53:33;;;;;;;;;;;;;;;;;;5113042;28;1927;-40
2023/04/13 10:56:01;;;;;;;;;;;;;;;;;;5119991;27;2020;-40
2023/04/13 10:58:31;;;;;;;;;;;;;;;;;;5133768;27;1920;-41
2023/04/13 11:00:59;;;;;;;;;;;;;;;;;;5133917;27;1935;-48
2023/04/13 11:03:27;;;;;;;;;;;;;;;;;;5133498;27;1786;-40
2023/04/13 11:05:59;;;;;;;;;;;;;;;;;;5133998;27;2098;-41
2023/04/13 11:08:26;;;;;;;;;;;;;;;;;;5133783;27;1770;-40
2023/04/13 11:10:55;;;;;;;;;;;;;;;;;;5133835;27;2095;-45
2023/04/13 11:13:27;;;;;;;;;;;;;;;;;;5133006;27;2338;-41
2023/04/13 11:16:02;;;;;;;;;;;;;;;;;;5132780;27;1896;-41
2023/04/13 11:18:30;;;;;;;;;;;;;;;;;;5133326;27;1511;-39
2023/04/13 11:20:57;;;;;;;;;;;;;;;;;;5133472;27;1970;-46
2023/04/13 11:23:25;;;;;;;;;;;;;;;;;;5133473;27;1739;-41
2023/04/13 11:25:56;;;;;;;;;;;;;;;;;;5133812;27;1941;-41
2023/04/13 11:28:25;;;;;;;;;;;;;;;;;;5133527;27;2145;-43
2023/04/13 11:30:55;;;;;;;;;;;;;;;;;;5132055;27;1992;-40
2023/04/13 11:33:24;;;;;;;;;;;;;;;;;;5131197;27;2129;-39
2023/04/13 11:35:52;;;;;;;;;;;;;;;;;;5131395;27;1502;-41
2023/04/13 11:38:20;;;;;;;;;;;;;;;;;;5131440;27;1833;-41
2023/04/13 11:40:48;;;;;;;;;;;;;;;;;;5131469;27;1928;-40
2023/04/13 11:43:16;;;;;;;;;;;;;;;;;;5130846;27;1818;-44
2023/04/13 11:45:45;;;;;;;;;;;;;;;;;;5131143;27;1872;-46
2023/04/13 11:48:13;;;;;;;;;;;;;;;;;;5132630;27;2230;-50
2023/04/13 11:50:41;;;;;;;;;;;;;;;;;;5132920;27;2264;-45
2023/04/13 11:53:09;;;;;;;;;;;;;;;;;;5131378;27;1753;-40
2023/04/13 11:55:37;;;;;;;;;;;;;;;;;;5123537;27;1859;-49
2023/04/13 11:58:19;;;;;;;;;;;;;;;;;;5132654;27;1485;-39
2023/04/13 12:00:47;;;;;;;;;;;;;;;;;;5132453;27;2102;-40
2023/04/13 12:03:16;;;;;;;;;;;;;;;;;;5132510;27;1605;-40
2023/04/13 12:05:46;;;;;;;;;;;;;;;;;;5132616;27;2067;-40
2023/04/13 12:08:24;;;;;;;;;;;;;;;;;;5132625;27;2104;-40
2023/04/13 12:10:59;;;;;;;;;;;;;;;;;;5132328;27;1980;-39
2023/04/13 12:13:47;;;;;;;;;;;;;;;;;;5132540;27;1770;-39
2023/04/13 12:16:35;;;;;;;;;;;;;;;;;;5132489;27;1870;-39
2023/04/13 12:19:22;;;;;;;;;;;;;;;;;;5130667;27;2208;-40
2023/04/13 12:21:54;;;;;;;;;;;;;;;;;;5132691;27;2091;-40
2023/04/13 12:24:36;;;;;;;;;;;;;;;;;;5132159;27;1948;-40
2023/04/13 12:27:04;;;;;;;;;;;;;;;;;;5131972;27;1615;-40
2023/04/13 12:29:38;;;;;;;;;;;;;;;;;;5132329;27;2260;-39
2023/04/13 12:32:12;;;;;;;;;;;;;;;;;;5132267;27;1913;-41
2023/04/13 12:34:41;;;;;;;;;;;;;;;;;;5132370;27;2094;-42
2023/04/13 12:37:09;;;;;;;;;;;;;;;;;;5132263;27;2160;-40
2023/04/13 12:39:37;;;;;;;;;;;;;;;;;;5131725;27;1693;-39
2023/04/13 12:42:04;;;;;;;;;;;;;;;;;;5132005;27;2257;-40
2023/04/13 12:44:32;;;;;;;;;;;;;;;;;;5132111;27;1548;-39
2023/04/13 12:47:00;;;;;;;;;;;;;;;;;;5130848;27;1945;-39
2023/04/13 12:49:28;;;;;;;;;;;;;;;;;;5132533;27;1986;-40
2023/04/13 12:51:56;;;;;;;;;;;;;;;;;;5131900;27;2145;-39
2023/04/13 12:54:23;;;;;;;;;;;;;;;;;;5131826;28;1989;-39
2023/04/13 12:56:50;;;;;;;;;;;;;;;;;;5118564;27;1937;-40
2023/04/13 12:59:20;;;;;;;;;;;;;;;;;;5111589;28;2363;-40
2023/04/13 13:01:48;;;;;;;;;;;;;;;;;;5111423;28;2241;-49
2023/04/13 13:04:16;;;;;;;;;;;;;;;;;;5111126;28;2127;-44
2023/04/13 13:06:43;;;;;;;;;;;;;;;;;;5111889;28;1952;-39
2023/04/13 13:09:10;;;;;;;;;;;;;;;;;;5111369;28;1971;-51
2023/04/13 13:11:37;;;;;;;;;;;;;;;;;;5111348;28;2005;-39
2023/04/13 13:14:05;;;;;;;;;;;;;;;;;;5111330;28;2178;-40
2023/04/13 13:16:33;;;;;;;;;;;;;;;;;;5110611;28;2265;-39
2023/04/13 13:19:01;;;;;;;;;;;;;;;;;;5111102;28;1890;-41
2023/04/13 13:21:28;;;;;;;;;;;;;;;;;;5110692;28;1985;-39
2023/04/13 13:23:55;;;;;;;;;;;;;;;;;;5110451;28;2164;-46
2023/04/13 13:26:23;;;;;;;;;;;;;;;;;;5111110;28;1924;-40
2023/04/13 13:28:56;;;;;;;;;;;;;;;;;;5110636;28;1745;-40
2023/04/13 13:31:24;;;;;;;;;;;;;;;;;;5110859;28;2177;-47
2023/04/13 13:33:53;;;;;;;;;;;;;;;;;;5110763;28;1371;-40
2023/04/13 13:36:20;;;;;;;;;;;;;;;;;;5110672;28;1976;-43
2023/04/13 13:38:47;;;;;;;;;;;;;;;;;;5112534;28;1886;-40
2023/04/13 13:41:15;;;;;;;;;;;;;;;;;;5114206;28;1938;-42
2023/04/13 13:43:42;;;;;;;;;;;;;;;;;;5113986;28;1898;-40
2023/04/13 13:46:09;;;;;;;;;;;;;;;;;;5114434;28;1843;-40
2023/04/13 13:48:38;;;;;;;;;;;;;;;;;;5112263;28;2350;-39
2023/04/13 13:51:30;;;;;;;;;;;;;;;;;;5112959;28;1921;-40
2023/04/13 13:53:59;;;;;;;;;;;;;;;;;;5113091;28;2203;-42
2023/04/13 13:56:26;;;;;;;;;;;;;;;;;;5124379;27;1917;-43
2023/04/13 13:58:53;;;;;;;;;;;;;;;;;;5127408;27;1452;-43
2023/04/13 14:01:20;;;;;;;;;;;;;;;;;;5113221;28;1918;-42
2023/04/13 14:03:48;;;;;;;;;;;;;;;;;;5113677;28;1554;-50
2023/04/13 14:06:15;;;;;;;;;;;;;;;;;;5113141;28;2103;-50
2023/04/13 14:08:42;;;;;;;;;;;;;;;;;;5114067;28;2037;-40
2023/04/13 14:11:11;;;;;;;;;;;;;;;;;;5114194;28;1986;-41
2023/04/13 14:13:38;;;;;;;;;;;;;;;;;;5114084;28;1603;-40
2023/04/13 14:16:05;;;;;;;;;;;;;;;;;;5114176;28;1480;-40
2023/04/13 14:18:32;;;;;;;;;;;;;;;;;;5113860;28;2006;-40
2023/04/13 14:21:00;;;;;;;;;;;;;;;;;;5111417;28;2060;-42
2023/04/13 14:23:27;;;;;;;;;;;;;;;;;;5113725;27;1274;-48
2023/04/13 14:25:54;;;;;;;;;;;;;;;;;;5113698;28;1776;-39
2023/04/13 14:28:21;;;;;;;;;;;;;;;;;;5114095;28;2119;-40
2023/04/13 14:30:48;;;;;;;;;;;;;;;;;;5113938;28;2001;-39
2023/04/13 14:33:16;;;;;;;;;;;;;;;;;;5114051;28;2094;-40
2023/04/13 14:35:43;;;;;;;;;;;;;;;;;;5114285;28;1681;-38
2023/04/13 14:38:10;;;;;;;;;;;;;;;;;;5113506;28;2120;-47
2023/04/13 14:40:37;;;;;;;;;;;;;;;;;;5113781;27;1934;-40
2023/04/13 14:43:05;;;;;;;;;;;;;;;;;;5113784;28;1718;-39
2023/04/13 14:45:32;;;;;;;;;;;;;;;;;;5113441;28;1776;-40
2023/04/13 14:48:00;;;;;;;;;;;;;;;;;;5113324;28;1905;-39
2023/04/13 14:50:27;;;;;;;;;;;;;;;;;;5112943;28;2011;-40
2023/04/13 14:52:55;;;;;;;;;;;;;;;;;;5113470;28;1633;-40
2023/04/13 14:55:22;;;;;;;;;;;;;;;;;;5113066;27;1828;-40
2023/04/13 14:57:50;;;;;;;;;;;;;;;;;;5133647;27;1763;-39
2023/04/13 15:00:20;;;;;;;;;;;;;;;;;;5133924;27;1721;-42
2023/04/13 15:02:50;;;;;;;;;;;;;;;;;;5133693;27;2022;-39
2023/04/13 15:05:19;;;;;;;;;;;;;;;;;;5133421;27;1864;-40
2023/04/13 15:07:47;;;;;;;;;;;;;;;;;;5133604;27;1760;-39
2023/04/13 15:10:15;;;;;;;;;;;;;;;;;;5133769;27;1986;-40
2023/04/13 15:12:42;;;;;;;;;;;;;;;;;;5133844;27;1973;-39
2023/04/13 15:15:10;;;;;;;;;;;;;;;;;;5133105;27;2092;-40
2023/04/13 15:17:37;;;;;;;;;;;;;;;;;;5133650;27;1772;-40
2023/04/13 15:20:06;;;;;;;;;;;;;;;;;;5133117;27;2373;-40
2023/04/13 15:22:34;;;;;;;;;;;;;;;;;;5132721;27;1914;-39
2023/04/13 15:25:02;;;;;;;;;;;;;;;;;;5133380;27;1656;-40
2023/04/13 15:27:29;;;;;;;;;;;;;;;;;;5112967;27;1903;-40
2023/04/13 15:29:58;;;;;;;;;;;;;;;;;;5112114;28;1901;-39
2023/04/13 15:32:25;;;;;;;;;;;;;;;;;;5111626;28;1804;-42
2023/04/13 15:34:55;;;;;;;;;;;;;;;;;;5112064;28;2158;-39
2023/04/13 15:37:22;;;;;;;;;;;;;;;;;;5112467;28;1752;-40
2023/04/13 15:39:49;;;;;;;;;;;;;;;;;;5112680;28;2035;-39
2023/04/13 15:42:19;;;;;;;;;;;;;;;;;;5112352;28;2070;-39
2023/04/13 15:44:47;;;;;;;;;;;;;;;;;;5112454;27;1731;-40
2023/04/13 15:47:14;;;;;;;;;;;;;;;;;;5112172;28;1517;-44
2023/04/13 15:49:41;;;;;;;;;;;;;;;;;;5112928;28;1679;-39
2023/04/13 15:52:08;;;;;;;;;;;;;;;;;;5112664;28;2011;-45
2023/04/13 15:54:35;;;;;;;;;;;;;;;;;;5112340;28;1648;-40
2023/04/13 15:57:03;;;;;;;;;;;;;;;;;;5127711;27;1857;-39
2023/04/13 15:59:32;;;;;;;;;;;;;;;;;;5132696;27;1744;-38
2023/04/13 16:01:59;;;;;;;;;;;;;;;;;;5131909;27;1658;-39
2023/04/13 16:04:28;;;;;;;;;;;;;;;;;;5132709;27;1474;-38
2023/04/13 16:06:56;;;;;;;;;;;;;;;;;;5132402;27;2162;-39
2023/04/13 16:09:38;;;;;;;;;;;;;;;;;;5132735;27;1751;-39
2023/04/13 16:12:07;;;;;;;;;;;;;;;;;;5132653;27;2172;-40
2023/04/13 16:14:44;;;;;;;;;;;;;;;;;;5132719;27;1835;-40
2023/04/13 16:17:13;;;;;;;;;;;;;;;;;;5132586;27;1838;-40
2023/04/13 16:19:45;;;;;;;;;;;;;;;;;;5132653;27;1799;-40
2023/04/13 16:22:12;;;;;;;;;;;;;;;;;;5132713;27;2280;-39
2023/04/13 16:24:40;;;;;;;;;;;;;;;;;;5132433;27;1899;-40
2023/04/13 16:27:07;;;;;;;;;;;;;;;;;;5132345;27;1269;-40
2023/04/13 16:29:34;;;;;;;;;;;;;;;;;;5132232;27;1256;-40
2023/04/13 16:32:01;;;;;;;;;;;;;;;;;;5132232;27;1915;-40
2023/04/13 16:34:28;;;;;;;;;;;;;;;;;;5123050;27;1965;-43
2023/04/13 16:36:57;;;;;;;;;;;;;;;;;;5120722;27;2062;-39
2023/04/13 16:39:24;;;;;;;;;;;;;;;;;;5132062;27;1619;-40
2023/04/13 16:41:51;;;;;;;;;;;;;;;;;;5131715;27;1807;-40
2023/04/13 16:44:19;;;;;;;;;;;;;;;;;;5132139;27;1952;-39
2023/04/13 16:46:46;;;;;;;;;;;;;;;;;;5132018;27;2120;-39
2023/04/13 16:49:13;;;;;;;;;;;;;;;;;;5132419;27;1580;-40
2023/04/13 16:51:41;;;;;;;;;;;;;;;;;;5132192;28;1910;-39
2023/04/13 16:54:12;;;;;;;;;;;;;;;;;;5131815;27;1867;-39
2023/04/13 16:56:39;;;;;;;;;;;;;;;;;;5119885;27;2002;-41
2023/04/13 16:59:07;;;;;;;;;;;;;;;;;;5111478;28;1564;-40
2023/04/13 17:01:34;;;;;;;;;;;;;;;;;;5111191;28;1972;-39
2023/04/13 17:04:03;;;;;;;;;;;;;;;;;;5111118;28;1937;-39
2023/04/13 17:06:33;;;;;;;;;;;;;;;;;;5110884;28;2305;-39
2023/04/13 17:09:00;;;;;;;;;;;;;;;;;;5110188;28;1781;-42
2023/04/13 17:11:28;;;;;;;;;;;;;;;;;;5111358;28;2234;-39
2023/04/13 17:13:55;;;;;;;;;;;;;;;;;;5112985;28;1975;-40
2023/04/13 17:16:24;;;;;;;;;;;;;;;;;;5115675;28;1935;-39
2023/04/13 17:18:51;;;;;;;;;;;;;;;;;;5115098;28;2047;-39
2023/04/13 17:21:20;;;;;;;;;;;;;;;;;;5115153;28;2006;-39
2023/04/13 17:23:47;;;;;;;;;;;;;;;;;;5115431;28;1544;-39